createdAt,value
2023-02-22T00:03:58.813Z,101107.09
2023-02-22T00:09:03.382Z,101255.59
2023-02-22T00:14:06.151Z,101138.22
2023-02-22T00:19:30.016Z,101102.00
2023-02-22T00:24:55.470Z,101109.91
2023-02-22T00:30:22.467Z,101270.59
2023-02-22T00:35:46.665Z,101182.13
2023-02-22T00:41:12.173Z,101244.44
2023-02-22T00:46:36.359Z,101243.34
2023-02-22T00:51:59.820Z,101250.09
2023-02-22T00:57:25.013Z,101252.59
2023-02-22T01:02:50.616Z,101226.75
2023-02-22T01:08:16.522Z,100920.59
2023-02-22T01:13:40.914Z,101058.94
2023-02-22T01:19:03.936Z,101248.66
2023-02-22T01:24:26.975Z,101263.25
2023-02-22T01:29:52.396Z,101143.41
2023-02-22T01:35:19.087Z,101161.59
2023-02-22T01:40:44.440Z,101190.09
2023-02-22T01:46:21.979Z,101167.44
2023-02-22T01:51:47.833Z,101193.88
2023-02-22T01:57:16.583Z,101101.59
2023-02-22T02:02:45.147Z,101034.81
2023-02-22T02:08:22.205Z,101191.97
2023-02-22T02:13:45.360Z,101181.13
2023-02-22T02:19:15.314Z,101107.16
2023-02-22T02:24:54.590Z,100938.25
2023-02-22T02:30:44.165Z,101038.84
2023-02-22T02:36:16.153Z,101057.53
2023-02-22T02:41:45.293Z,101154.97
2023-02-22T02:47:15.338Z,101101.13
2023-02-22T02:52:42.075Z,101169.81
2023-02-22T02:58:05.764Z,101144.38
2023-02-22T03:03:41.450Z,101139.34
2023-02-22T03:09:13.859Z,100922.00
2023-02-22T03:14:43.285Z,101051.81
2023-02-22T03:20:14.383Z,101126.72
2023-02-22T03:25:44.694Z,101046.63
2023-02-22T03:31:11.859Z,101082.88
2023-02-22T03:36:43.694Z,101069.00
2023-02-22T03:42:15.924Z,101125.19
2023-02-22T03:47:42.472Z,101067.25
2023-02-22T03:53:07.387Z,101108.28
2023-02-22T03:58:36.514Z,101044.75
2023-02-22T04:04:01.947Z,101120.22
2023-02-22T04:09:25.851Z,101015.09
2023-02-22T04:14:50.602Z,101092.22
2023-02-22T04:20:14.540Z,101114.47
2023-02-22T04:25:45.221Z,101111.78
2023-02-22T04:31:11.390Z,100880.31
2023-02-22T04:36:34.911Z,101069.53
2023-02-22T04:41:58.160Z,100898.59
2023-02-22T04:47:22.909Z,101079.44
2023-02-22T04:52:47.452Z,101049.97
2023-02-22T04:58:10.630Z,101036.88
2023-02-22T05:03:35.495Z,100811.53
2023-02-22T05:08:58.710Z,101048.50
2023-02-22T05:14:27.146Z,101057.50
2023-02-22T05:19:51.542Z,100924.94
2023-02-22T05:25:14.725Z,101003.47
2023-02-22T05:30:41.249Z,101052.56
2023-02-22T05:36:07.892Z,101024.00
2023-02-22T05:41:30.928Z,100869.97
2023-02-22T05:46:54.002Z,101047.63
2023-02-22T05:52:18.504Z,100995.41
2023-02-22T05:57:42.005Z,100992.31
2023-02-22T06:10:37.168Z,101031.38
2023-02-22T06:16:00.170Z,101028.25
2023-02-22T06:21:23.167Z,101021.59
2023-02-22T06:26:48.057Z,101003.69
2023-02-22T06:32:11.367Z,101022.09
2023-02-22T06:37:38.551Z,101017.44
2023-02-22T06:43:02.824Z,101007.72
2023-02-22T06:48:25.772Z,100989.78
2023-02-22T06:53:48.776Z,101020.75
2023-02-22T06:59:13.182Z,100939.88
2023-02-22T07:04:37.251Z,101027.03
2023-02-22T07:10:02.718Z,101004.56
2023-02-22T07:15:29.123Z,101021.41
2023-02-22T07:20:52.050Z,100949.88
2023-02-22T07:26:15.300Z,101019.75
2023-02-22T07:31:40.407Z,101007.94
2023-02-22T07:37:04.977Z,101005.31
2023-02-22T07:42:27.933Z,101014.16
2023-02-22T07:47:52.604Z,101006.38
2023-02-22T07:53:17.993Z,100996.94
2023-02-22T07:58:41.009Z,100930.00
2023-02-22T08:04:06.260Z,100997.66
2023-02-22T08:09:29.198Z,100999.22
2023-02-22T08:14:52.180Z,100990.16
2023-02-22T08:20:17.001Z,100983.78
2023-02-22T08:25:46.052Z,100989.06
2023-02-22T08:31:09.472Z,100852.41
2023-02-22T08:36:34.336Z,100977.50
2023-02-22T08:41:57.294Z,100969.66
2023-02-22T08:47:20.332Z,100872.31
2023-02-22T08:52:44.729Z,100975.69
2023-02-22T08:58:09.698Z,100976.09
2023-02-22T09:03:33.082Z,100977.28
2023-02-22T09:08:57.447Z,100964.44
2023-02-22T09:14:20.522Z,100934.75
2023-02-22T09:19:45.384Z,100961.56
2023-02-22T09:25:16.604Z,100967.00
2023-02-22T09:30:40.697Z,100964.41
2023-02-22T09:36:03.687Z,100940.03
2023-02-22T09:41:36.287Z,100960.25
2023-02-22T09:46:59.754Z,100947.41
2023-02-22T09:52:27.561Z,100951.34
2023-02-22T09:57:55.348Z,100949.47
2023-02-22T10:03:25.294Z,100943.00
2023-02-22T10:08:50.745Z,100885.19
2023-02-22T10:14:35.599Z,100931.16
2023-02-22T10:20:11.028Z,100919.75
2023-02-22T10:25:38.776Z,100903.41
2023-02-22T10:31:08.160Z,100904.97
2023-02-22T10:36:31.358Z,100912.22
2023-02-22T10:41:57.976Z,100906.19
2023-02-22T10:47:25.843Z,100863.75
2023-02-22T10:52:48.953Z,100845.31
2023-02-22T10:58:12.074Z,100883.38
2023-02-22T11:03:36.525Z,100889.63
2023-02-22T11:09:10.517Z,100881.00
2023-02-22T11:14:33.891Z,100880.13
2023-02-22T11:19:59.012Z,100779.84
2023-02-22T11:25:26.012Z,100880.56
2023-02-22T14:11:06.622Z,100756.47
2023-02-22T14:16:33.779Z,100586.84
2023-02-22T14:22:02.009Z,100752.81
2023-02-22T14:27:39.619Z,100803.66
2023-02-22T14:33:27.948Z,100796.84
2023-02-22T14:38:56.266Z,100769.91
2023-02-22T14:44:25.141Z,100756.31
2023-02-22T14:49:55.250Z,100690.75
2023-02-22T14:55:25.557Z,100799.88
2023-02-22T15:00:59.703Z,100729.06
2023-02-22T15:06:26.929Z,100743.03
2023-02-22T15:12:25.963Z,100443.84
2023-02-22T15:24:25.125Z,100384.66
2023-02-22T15:29:49.689Z,100629.34
2023-02-22T15:35:19.444Z,100812.91
2023-02-22T15:40:43.243Z,100815.69
2023-02-22T15:46:10.792Z,100792.75
2023-02-22T15:51:46.335Z,100523.81
2023-02-22T15:57:16.127Z,100690.03
2023-02-22T16:02:51.107Z,100737.41
2023-02-22T16:08:18.616Z,100745.25
2023-02-22T16:13:43.475Z,100831.34
2023-02-22T16:19:34.206Z,100830.50
2023-02-22T16:25:16.438Z,100834.59
2023-02-22T16:30:42.268Z,100733.38
2023-02-22T16:36:25.836Z,100711.94
2023-02-22T16:41:49.748Z,100583.34
2023-02-22T16:47:14.802Z,100791.84
2023-02-22T16:52:40.683Z,100821.84
2023-02-22T16:58:09.965Z,100786.22
2023-02-22T17:03:32.987Z,100814.25
2023-02-22T17:15:47.345Z,100735.09
2023-02-22T17:21:16.838Z,100863.53
2023-02-22T17:26:39.789Z,100809.22
2023-02-22T17:32:16.784Z,100882.75
2023-02-22T17:37:55.142Z,100749.31
2023-02-22T17:43:20.782Z,100854.84
2023-02-22T17:48:49.214Z,100866.19
2023-02-22T17:54:15.969Z,100845.66
2023-02-22T17:59:40.695Z,100911.00
2023-02-22T18:05:05.578Z,100901.75
2023-02-22T18:10:28.682Z,100840.28
2023-02-22T18:15:51.911Z,100896.88
2023-02-22T18:21:16.330Z,100855.06
2023-02-22T18:26:46.412Z,100768.06
2023-02-22T18:32:13.497Z,100697.47
2023-02-22T18:37:37.958Z,100925.16
2023-02-22T18:43:01.025Z,100914.03
2023-02-22T18:48:23.986Z,100932.91
2023-02-22T18:53:50.074Z,100921.53
2023-02-22T18:59:16.285Z,100856.66
2023-02-22T19:04:39.567Z,100899.31
2023-02-22T19:10:16.766Z,100793.31
2023-02-22T19:15:45.478Z,100927.06
2023-02-22T19:21:12.658Z,100844.06
2023-02-22T19:26:39.624Z,100769.63
2023-02-22T19:32:03.180Z,100735.09
2023-02-22T19:37:26.908Z,100862.56
2023-02-22T19:42:54.125Z,100807.41
2023-02-22T19:48:17.649Z,100907.56
2023-02-22T19:53:45.120Z,100884.78
2023-02-22T19:59:18.628Z,100731.63
2023-02-22T20:04:51.602Z,100540.13
2023-02-22T20:10:57.463Z,100496.44
2023-02-22T20:17:46.170Z,100940.06
2023-02-22T20:23:14.864Z,100782.38
2023-02-22T20:28:44.108Z,100664.13
2023-02-22T20:34:10.345Z,100523.16
2023-02-22T20:39:41.019Z,100692.03
2023-02-22T20:45:12.194Z,100958.78
2023-02-22T20:50:36.297Z,100892.06
2023-02-22T20:56:13.118Z,100876.38
2023-02-22T21:01:36.305Z,100971.59
2023-02-22T21:07:01.069Z,100703.34
2023-02-22T21:12:32.084Z,100832.34
2023-02-22T21:17:55.971Z,100893.38
2023-02-22T21:23:53.629Z,100817.56
2023-02-22T21:29:54.518Z,100471.44
2023-02-22T21:35:23.567Z,100870.88
2023-02-22T21:40:58.818Z,100657.59
2023-02-22T21:46:27.305Z,100749.53
2023-02-22T21:52:09.974Z,100880.00
2023-02-22T21:57:33.557Z,100945.66
2023-02-22T22:03:05.041Z,100961.47
2023-02-22T22:08:32.086Z,100959.94
2023-02-22T22:13:59.581Z,100960.97
2023-02-22T22:19:25.517Z,100966.00
2023-02-22T22:25:17.713Z,100794.06
2023-02-22T22:30:42.573Z,100954.72
2023-02-22T22:36:06.856Z,100957.81
2023-02-22T22:41:33.935Z,100888.16
2023-02-22T22:47:20.369Z,100626.44
2023-02-22T22:52:49.579Z,100956.63
2023-02-22T22:58:29.462Z,100693.53
2023-02-22T23:03:55.900Z,100971.94
2023-02-22T23:09:24.352Z,100546.72
2023-02-22T23:14:52.615Z,100748.69
2023-02-22T23:20:23.194Z,100886.25
2023-02-22T23:25:51.998Z,100846.03
2023-02-22T23:31:25.493Z,100522.44
2023-02-22T23:36:49.901Z,100942.34
2023-02-22T23:42:21.695Z,100874.13
2023-02-22T23:47:59.051Z,100962.13
2023-02-22T23:53:25.948Z,100928.47
2023-02-22T23:58:51.960Z,100985.09
